Tiempo atmosférico en la estación meteorológica de Fonfría, Teruel (1262 m.)



Fecha
DESCASC
Temp. máxima en grados centígrados (hora)
DESCASC
Temp. mínima en grados centígrados (hora)
DESCASC
Temp. media en grados centígrados
DESCASC
Racha de viento máxima en m/sg (hora)
DESCASC
Velocidad máxima media en intervalos de 10 minutos(hora)
DESCASC
Precipitaciones diarias en mm
DESCASC
Precipitaciones de 00:00 a 06:00 en mm
DESCASC
Precipitaciones de 06:00 a 12:00 en mm
DESCASC
Precipitaciones de 12:00 a 18:00 en mm
DESCASC
Precipitaciones de 18:00 a 24:00 en mm
DESCASC
25-02-2021 14.2 (14:20) 1.5 (06:00) 7.8 11.67 (02:20) 9.72 (02:20) 0 0 0 0 0
24-02-2021 14 (14:20) 3 (06:00) 8.5 10.28 (02:50) 8.89 (03:00) 0 0 0 0 0
23-02-2021 11.5 (15:50) 0 (07:30) 5.8 7.78 (07:40) 5.56 (07:40) 0.2 0.2 0 0 0
22-02-2021 6.1 (00:00) 1 (10:00) 3.5 10.83 (06:10) 6.11 (07:50) 8.4 8.2 0 0.2 0
21-02-2021 11.1 (12:30) 5.1 (00:00) 8.1 14.17 (13:40) 9.72 (13:40) 0 0 0 0 0
20-02-2021 16.3 (15:00) 6.1 (00:00) 11.2 15 (14:00) 8.61 (13:10) 0 0 0 0 0
19-02-2021 15.5 (15:20) 2.7 (00:00) 9.1 13.06 (13:40) 8.33 (11:30) 0 0 0 0 0
18-02-2021 15.3 (15:20) 4.3 (00:00) 9.8 12.5 (15:40) 6.67 (11:20) 0 0 0 0 0
17-02-2021 15.5 (15:00) 4.7 (00:00) 10.1 10.56 (15:30) 5 (12:40) 0 0 0 0 0
16-02-2021 16.6 (15:20) 1.1 (00:00) 8.9 12.5 (17:10) 6.39 (08:50) 0 0 0 0 0
15-02-2021 13 (14:40) 2.4 (00:00) 7.7 13.89 (01:30) 11.11 (01:30) 0 0 0 0 0
14-02-2021 11.7 (14:40) 1 (00:00) 6.3 10.56 (22:20) 8.33 (22:10) 0 0 0 0 0
13-02-2021 7.5 (14:00) 2 (00:00) 4.8 13.61 (15:00) 9.44 (15:40) 0 0 0 0 0
12-02-2021 8.2 (02:40) 3.1 (00:00) 5.6 16.39 (14:20) 10.56 (15:20) 9.6 0 5.2 2.6 1.8
11-02-2021 11.6 (15:10) 2.6 (00:00) 7.1 13.61 (08:50) 8.61 (08:50) 0 0 0 0 0
10-02-2021 6.4 (16:00) 0.3 (00:00) 3.4 14.44 (12:10) 9.17 (11:00) 12.2 10 2.2 0 0
09-02-2021 8.2 (15:00) 1.3 (00:00) 4.7 17.22 (05:30) 10.28 (05:30) 9.8 0.2 0 3.2 6.4
08-02-2021 5.6 (13:40) 1.4 (00:00) 3.5 16.39 (20:40) 10 (03:20) 9.6 0 6.6 0.8 2.2
07-02-2021 5.1 (15:20) -0.7 (-00:0) 2.2 12.78 (22:30) 8.33 (01:40) 0 0 0 0 0
06-02-2021 9.1 (13:20) 0.9 (00:00) 5 11.39 (12:20) 7.78 (12:20) 7 4 0.2 0.2 2.6
05-02-2021 15.1 (15:00) 6.1 (00:00) 10.6 12.22 (12:50) 7.5 (12:50) 0 0 0 0 0
04-02-2021 15.1 (14:40) 5.8 (00:00) 10.5 9.44 (16:10) 5.56 (17:00) 0 0 0 0 0
03-02-2021 12.1 (14:50) 3.3 (00:00) 7.7 15.83 (11:40) 9.72 (04:40) 0 0 0 0 0
02-02-2021 11.5 (15:00) 4.4 (02:30) 8 16.39 (12:50) 11.67 (18:50) 0 0 0 0 0
01-02-2021 10.3 (13:50) 5.4 (00:00) 7.9 20.83 (02:50) 13.06 (02:50) 0 0 0 0 0
31-01-2021 8.4 (15:00) 2.4 (00:00) 5.4 20.28 (07:30) 13.06 (15:10) 0.2 0.2 0 0 0
30-01-2021 7.8 (04:40) 2.7 (00:00) 5.3 18.89 (23:40) 11.11 (00:40) 10 0 7.2 1.6 1.2
29-01-2021 12.1 (13:50) 6.8 (00:00) 9.5 16.67 (07:00) 10.28 (09:50) 0 0 0 0 0
28-01-2021 15.7 (15:00) 7.7 (00:00) 11.7 15.28 (00:10) 11.11 (00:10) 0 0 0 0 0

Gráficas

Temp. máximas Temp. mínimas Temp. medias Precipitaciones Rachas de viento máximas Velocidades máximas media en intervalos de 10 minutos

Datos horarios

Fecha y hora oficial Temperatura (ºC) Velocidad del viento (km/h) Dirección del viento Racha (km/h) Dirección de racha Precipitación (mm) Presión (hPa) Tendencia (hPa) Humedad (%)
2021-02-26 23:00:00 5 4 Sur 6 Sur 0 -- -- 88
2021-02-26 22:00:00 5.2 3 Sur 6 Sur 0 -- -- 87
2021-02-26 21:00:00 5 3 Sur 5 Sur 0 -- -- 95
2021-02-26 20:00:00 6 0 Calma 9 Nordeste 0 -- -- 95
2021-02-26 19:00:00 6.9 5 Nordeste 12 Nordeste 0 -- -- 91
2021-02-26 18:00:00 8.8 8 Este 16 Nordeste 0 -- -- 84
2021-02-26 17:00:00 10 10 Nordeste 18 Nordeste 0 -- -- 77
2021-02-26 16:00:00 10.7 11 Nordeste 18 Nordeste 0 -- -- 72
2021-02-26 15:00:00 11.4 11 Este 27 Nordeste 0 -- -- 68
2021-02-26 14:00:00 11.5 9 Este 18 Este 0 -- -- 63
2021-02-26 13:00:00 11.6 10 Este 20 Este 0 -- -- 61
2021-02-26 12:00:00 11.1 12 Este 21 Este 0 -- -- 57
2021-02-26 11:00:00 7.4 6 Sudeste 14 Sudeste 0 -- -- 96
2021-02-26 10:00:00 4 8 Sudeste 13 Sudeste 0 -- -- 100
2021-02-26 09:00:00 3.2 6 Sudeste 10 Sur 0 -- -- 99
2021-02-26 08:00:00 3.5 3 Sudeste 9 Este 0 -- -- 99
2021-02-26 07:00:00 4 4 Sudeste 10 Sudeste 0 -- -- 99
2021-02-26 06:00:00 3.4 6 Sur 9 Sur 0 -- -- 99
2021-02-26 05:00:00 2.6 6 Sur 9 Sudeste 0 -- -- 97
2021-02-26 04:00:00 4.5 3 Sur 5 Sur 0 -- -- 80
2021-02-26 03:00:00 4.9 4 Sur 12 Sur 0 -- -- 79
2021-02-26 02:00:00 5.1 3 Sudeste 6 Sudoeste 0 -- -- 84
2021-02-26 01:00:00 4.8 4 Sudoeste 10 Sudoeste 0 -- -- 95
2021-02-26 00:00:00 5.3 6 Sur 11 Sudeste 0 -- -- 93
2021-02-25 23:00:00 4.8 0 Calma 13 Sudeste 0 -- -- 93
2021-02-25 22:00:00 5.5 8 Sudeste 15 Sudeste 0 -- -- 94
2021-02-25 21:00:00 5.3 13 Sudeste 18 Sudeste 0 -- -- 95
2021-02-25 20:00:00 5.6 6 Sudeste 18 Sudeste 0 -- -- 92
2021-02-25 19:00:00 6.4 13 Sudeste 17 Sudeste 0 -- -- 88
2021-02-25 18:00:00 8.2 5 Este 16 Nordeste 0 -- -- 81
2021-02-25 17:00:00 9.1 10 Este 23 Este 0 -- -- 78
2021-02-25 16:00:00 11.2 14 Este 35 Sur 0 -- -- 70
2021-02-25 15:00:00 14 21 Sur 37 Sur 0 -- -- 49
2021-02-25 14:00:00 14.1 13 Sur 27 Sudeste 0 -- -- 54
2021-02-25 13:00:00 13.7 9 Sudeste 21 Sur 0 -- -- 55
2021-02-25 12:00:00 11.3 12 Sur 26 Sur 0 -- -- 60
2021-02-25 11:00:00 9.2 15 Sudoeste 33 Sudoeste 0 -- -- 63
2021-02-25 10:00:00 6.9 22 Sudoeste 39 Sudoeste 0 -- -- 67
2021-02-25 09:00:00 4.4 31 Sudoeste 40 Sudoeste 0 -- -- 76
2021-02-25 08:00:00 3.2 23 Sudoeste 28 Sudoeste 0 -- -- 76
2021-02-25 07:00:00 2.5 21 Sudoeste 31 Sudoeste 0 -- -- 83
2021-02-25 06:00:00 1.5 26 Sudoeste 31 Sudoeste 0 -- -- 95
2021-02-25 05:00:00 1.9 27 Sudoeste 32 Sudoeste 0 -- -- 94
2021-02-25 04:00:00 2.4 28 Sudoeste 35 Sudoeste 0 -- -- 94
2021-02-25 03:00:00 2.7 30 Sudoeste 42 Sudoeste 0 -- -- 93
2021-02-25 02:00:00 3.2 23 Sudoeste 28 Sudoeste 0 -- -- 90
2021-02-25 01:00:00 3.4 5 Sudeste 18 Sudoeste 0 -- -- 88
2021-02-25 00:00:00 3.8 20 Sudoeste 25 Sudoeste 0 -- -- 90
2021-02-24 23:00:00 4.3 15 Sudoeste 33 Sur 0 -- -- 89
2021-02-24 22:00:00 5.6 21 Sudoeste 34 Sudoeste 0 -- -- 88
2021-02-24 21:00:00 6.2 18 Sudoeste 31 Sur 0 -- -- 86
2021-02-24 20:00:00 7.4 13 Sur 24 Sur 0 -- -- 81
2021-02-24 19:00:00 8.4 10 Sur 19 Sudeste 0 -- -- 86
2021-02-24 18:00:00 10 13 Sudeste 22 Sudeste 0 -- -- 82
2021-02-24 17:00:00 10.9 13 Sudeste 27 Este 0 -- -- 79
2021-02-24 16:00:00 11.3 10 Este 24 Sudeste 0 -- -- 79
2021-02-24 15:00:00 12.6 13 Sudeste 31 Sudeste 0 -- -- 64
2021-02-24 14:00:00 13.7 15 Sudeste 30 Sur 0 -- -- 56
2021-02-24 13:00:00 12.6 17 Sudoeste 33 Sur 0 -- -- 59
2021-02-24 12:00:00 11.9 19 Sur 33 Sudoeste 0 -- -- 63
2021-02-24 11:00:00 11.1 18 Sudoeste 30 Sudoeste 0 -- -- 62
2021-02-24 10:00:00 8.7 24 Sudoeste 32 Sudoeste 0 -- -- 75
2021-02-24 09:00:00 7.3 18 Sudoeste 33 Sudoeste 0 -- -- 80
2021-02-24 08:00:00 5.3 26 Sudoeste 31 Sudoeste 0 -- -- 86
2021-02-24 07:00:00 4.4 21 Sudoeste 37 Sudoeste 0 -- -- 91
2021-02-24 06:00:00 3 31 Sudoeste 37 Sudoeste 0 -- -- 98
2021-02-24 05:00:00 3.7 23 Sudoeste 31 Sudoeste 0 -- -- 94
2021-02-24 04:00:00 3.3 23 Sudoeste 37 Sudoeste 0 -- -- 96
2021-02-24 03:00:00 3.9 32 Sudoeste 37 Sudoeste 0 -- -- 94
2021-02-24 02:00:00 4.5 25 Sudoeste 32 Sudoeste 0 -- -- 90
2021-02-24 01:00:00 4.7 19 Sudoeste 24 Sudoeste 0 -- -- 87
2021-02-24 00:00:00 5.6 18 Sur 23 Sudoeste 0 -- -- 84
2021-02-23 23:00:00 5.2 16 Sur 21 Sur 0 -- -- 93
2021-02-23 22:00:00 4 9 Sudeste 18 Sudeste 0 -- -- 98
2021-02-23 21:00:00 4.9 12 Sudeste 17 Sudeste 0 -- -- 97
2021-02-23 20:00:00 5.7 8 Sudeste 18 Sudeste 0 -- -- 91
2021-02-23 19:00:00 6.1 12 Sudeste 18 Sudeste 0 -- -- 90
2021-02-23 18:00:00 7.8 14 Sudeste 25 Sudeste 0 -- -- 83
2021-02-23 17:00:00 9.8 14 Sudeste 22 Sudeste 0 -- -- 72
2021-02-23 16:00:00 11.5 9 Sur 18 Sur 0 -- -- 56
2021-02-23 15:00:00 11.1 9 Sur 24 Sudeste 0 -- -- 55
2021-02-23 14:00:00 10.4 12 Sur 24 Sur 0 -- -- 58
2021-02-23 13:00:00 9.2 9 Sur 22 Sur 0 -- -- 65
2021-02-23 12:00:00 7.4 17 Sudoeste 25 Sur 0 -- -- 75
2021-02-23 11:00:00 6.3 13 Sur 20 Sudoeste 0 -- -- 82
2021-02-23 10:00:00 3.5 10 Sudeste 15 Este 0 -- -- 100
2021-02-23 09:00:00 1.9 8 Sudeste 12 Este 0 -- -- 100
2021-02-23 08:00:00 0.1 6 Sudoeste 28 Sudoeste 0 -- -- 100
2021-02-23 07:00:00 0.3 3 Este 17 Sudoeste 0 -- -- 100
2021-02-23 06:00:00 0.7 0 Calma 13 Sudoeste 0 -- -- 100
2021-02-23 05:00:00 0.9 7 Sur 12 Sur 0 -- -- 100
2021-02-23 04:00:00 1.3 4 Sur 13 Sudeste 0 -- -- 100
2021-02-23 03:00:00 1 3 Oeste 8 Oeste 0.2 -- -- 100
2021-02-23 02:00:00 0.9 5 Sudeste 10 Sudeste 0 -- -- 100
2021-02-23 01:00:00 1.6 2 Nordeste 6 Norte 0 -- -- 100
2021-02-23 00:00:00 1.7 4 Este 10 Este 0 -- -- 100
2021-02-22 23:00:00 1.9 7 Norte 13 Norte 0 -- -- 100
2021-02-22 22:00:00 2.1 10 Norte 18 Noroeste 0 -- -- 100
2021-02-22 21:00:00 2 11 Norte 17 Norte 0 -- -- 100
2021-02-22 20:00:00 1.9 12 Norte 18 Norte 0 -- -- 100
2021-02-22 19:00:00 2 12 Norte 16 Norte 0 -- -- 100
2021-02-22 18:00:00 2.2 10 Norte 19 Noroeste 0 -- -- 99
2021-02-22 17:00:00 2.5 17 Noroeste 22 Noroeste 0.2 -- -- 99
2021-02-22 16:00:00 2.7 11 Norte 21 Norte 0 -- -- 98
2021-02-22 15:00:00 2.7 17 Noroeste 22 Noroeste 0 -- -- 98
2021-02-22 14:00:00 2.6 15 Noroeste 21 Noroeste 0 -- -- 98
2021-02-22 13:00:00 2.7 15 Norte 24 Norte 0 -- -- 98
2021-02-22 12:00:00 2 16 Noroeste 25 Noroeste 0 -- -- 97
2021-02-22 11:00:00 1.6 18 Noroeste 30 Noroeste 0 -- -- 98
2021-02-22 10:00:00 1 17 Noroeste 33 Oeste 0 -- -- 97
2021-02-22 09:00:00 1.6 17 Noroeste 29 Oeste 0 -- -- 96
2021-02-22 08:00:00 1.4 20 Noroeste 37 Noroeste 0 -- -- 97
2021-02-22 07:00:00 1.8 14 Noroeste 39 Noroeste 0 -- -- 97
2021-02-22 06:00:00 2.1 16 Oeste 34 Noroeste 0 -- -- 96
2021-02-22 05:00:00 3.4 13 Oeste 30 Oeste 0.8 -- -- 96
2021-02-22 04:00:00 4 18 Sudoeste 31 Sur 2 -- -- 94
2021-02-22 03:00:00 5 13 Sur 25 Sur 0 -- -- 92
2021-02-22 02:00:00 4.6 8 Sur 38 Sudoeste 5.4 -- -- 94
2021-02-22 01:00:00 6 11 Sudeste 28 Sudeste 0 -- -- 97
2021-02-22 00:00:00 6.1 18 Sudeste 27 Sudeste 0 -- -- 96
2021-02-21 23:00:00 6.3 14 Sudeste 27 Sudeste 0 -- -- 95
2021-02-21 22:00:00 6.3 16 Sudeste 30 Sudeste 0 -- -- 95
2021-02-21 21:00:00 6 17 Sudeste 31 Sudeste 0 -- -- 97
2021-02-21 20:00:00 6.4 19 Sudeste 29 Sudeste 0 -- -- 91
2021-02-21 19:00:00 6.7 16 Sudeste 33 Sudeste 0 -- -- 88
2021-02-21 18:00:00 6.8 23 Sudeste 46 Sudeste 0 -- -- 88
2021-02-21 17:00:00 7 24 Sudeste 36 Sudeste 0 -- -- 89
2021-02-21 16:00:00 7.3 24 Sudeste 42 Sudeste 0 -- -- 87
2021-02-21 15:00:00 7.4 27 Sudeste 48 Sudeste 0 -- -- 84
2021-02-21 14:00:00 8.7 29 Sudeste 51 Sudeste 0 -- -- 77
2021-02-21 13:00:00 10.6 25 Sur 41 Sur 0 -- -- 64
2021-02-21 12:00:00 9.8 24 Sudeste 35 Sudeste 0 -- -- 67
2021-02-21 11:00:00 7.3 23 Sudeste 32 Sudeste 0 -- -- 75
2021-02-21 10:00:00 5.6 13 Sudeste 22 Sudeste 0 -- -- 76
2021-02-21 09:00:00 5.3 7 Sudeste 16 Sudeste 0 -- -- 68
2021-02-21 08:00:00 7.1 11 Sudeste 20 Sur 0 -- -- 56
2021-02-21 07:00:00 7.6 14 Sur 26 Sudeste 0 -- -- 56
2021-02-21 06:00:00 6.5 15 Sur 28 Sudeste 0 -- -- 62
2021-02-21 05:00:00 6.2 14 Sur 36 Sur 0 -- -- 63
2021-02-21 04:00:00 6.8 18 Sur 28 Sur 0 -- -- 61
2021-02-21 03:00:00 7.5 17 Sur 38 Sur 0 -- -- 56
2021-02-21 02:00:00 8 23 Sur 39 Sur 0 -- -- 53
2021-02-21 01:00:00 8.4 20 Sur 39 Sur 0 -- -- 51
2021-02-21 00:00:00 8.3 17 Sur 32 Sur 0 -- -- 52
2021-02-20 23:00:00 8.2 18 Sur 31 Sur 0 -- -- 57
2021-02-20 22:00:00 8.6 13 Sur 28 Sur 0 -- -- 56
2021-02-20 21:00:00 8.6 15 Sur 33 Sudoeste 0 -- -- 57
2021-02-20 20:00:00 8.9 13 Sur 30 Sur 0 -- -- 56
2021-02-20 19:00:00 10.6 12 Sur 27 Sudeste 0 -- -- 50
2021-02-20 18:00:00 12.5 12 Sur 30 Sur 0 -- -- 42
2021-02-20 17:00:00 14.1 21 Sur 43 Sur 0 -- -- 35
2021-02-20 16:00:00 15.7 23 Sur 47 Sur 0 -- -- 31
2021-02-20 15:00:00 16.3 20 Sur 47 Sur 0 -- -- 30
2021-02-20 14:00:00 15.3 30 Sur 54 Sur 0 -- -- 31
2021-02-20 13:00:00 15.3 26 Sur 49 Sur 0 -- -- 33
2021-02-20 12:00:00 14.2 18 Sur 45 Sur 0 -- -- 34
2021-02-20 11:00:00 12.6 23 Sudoeste 46 Sudoeste 0 -- -- 37
2021-02-20 10:00:00 10.5 26 Sudoeste 44 Sudoeste 0 -- -- 41
2021-02-20 09:00:00 8.7 19 Sur 35 Sudoeste 0 -- -- 44
2021-02-20 08:00:00 6.7 19 Sur 38 Sudoeste 0 -- -- 51
2021-02-20 07:00:00 6.4 16 Sur 39 Sudoeste 0 -- -- 55
2021-02-20 06:00:00 6.9 19 Sudoeste 37 Sur 0 -- -- 56
2021-02-20 05:00:00 7.2 14 Sur 26 Sur 0 -- -- 56
2021-02-20 04:00:00 6.5 10 Sur 22 Sur 0 -- -- 64
2021-02-20 03:00:00 6.9 10 Sur 26 Sudoeste 0 -- -- 64
2021-02-20 02:00:00 6.3 4 Sudoeste 27 Sur 0 -- -- 65
2021-02-20 01:00:00 7.1 19 Sur 32 Sudoeste 0 -- -- 58
2021-02-20 00:00:00 6.7 3 Nordeste 21 Sudoeste 0 -- -- 51
2021-02-19 23:00:00 7.7 7 Sudoeste 15 Sudoeste 0 -- -- 44
2021-02-19 22:00:00 7.8 7 Sudoeste 15 Sudoeste 0 -- -- 44
2021-02-19 21:00:00 7.5 11 Sudoeste 15 Sudoeste 0 -- -- 45
2021-02-19 20:00:00 7.7 9 Sudoeste 18 Sudoeste 0 -- -- 46
2021-02-19 19:00:00 9.3 10 Sudoeste 13 Sudoeste 0 -- -- 41
2021-02-19 18:00:00 12.3 9 Oeste 29 Sudoeste 0 -- -- 31
2021-02-19 17:00:00 14.5 15 Oeste 40 Oeste 0 -- -- 29
2021-02-19 16:00:00 15.2 17 Sudoeste 40 Oeste 0 -- -- 28
2021-02-19 15:00:00 15.4 16 Oeste 43 Sudoeste 0 -- -- 29
2021-02-19 14:00:00 14.4 26 Sudoeste 47 Oeste 0 -- -- 35
2021-02-19 13:00:00 13.8 25 Sudoeste 42 Sudoeste 0 -- -- 38
2021-02-19 12:00:00 13.1 22 Sudoeste 41 Sudoeste 0 -- -- 41
2021-02-19 11:00:00 12.2 22 Sudoeste 36 Sudoeste 0 -- -- 46
2021-02-19 10:00:00 9.5 14 Sur 23 Sur 0 -- -- 56
2021-02-19 09:00:00 7 10 Sudoeste 27 Sudoeste 0 -- -- 61
2021-02-19 08:00:00 5.1 17 Sudoeste 26 Sudoeste 0 -- -- 63
2021-02-19 07:00:00 2.9 15 Sudoeste 18 Sudoeste 0 -- -- 71
2021-02-19 06:00:00 2.7 14 Sudoeste 18 Sudoeste 0 -- -- 72
2021-02-19 05:00:00 2.9 15 Sudoeste 18 Sudoeste 0 -- -- 73
2021-02-19 04:00:00 3.5 14 Sudoeste 18 Sudoeste 0 -- -- 71
2021-02-19 03:00:00 3.9 15 Sudoeste 18 Sudoeste 0 -- -- 68
2021-02-19 02:00:00 4.2 15 Sudoeste 18 Sudoeste 0 -- -- 66
2021-02-19 01:00:00 4.2 15 Sudoeste 17 Sudoeste 0 -- -- 65
2021-02-19 00:00:00 4.4 13 Sudoeste 17 Oeste 0 -- -- 64
2021-02-18 23:00:00 5.5 11 Sudoeste 20 Oeste 0 -- -- 60
2021-02-18 22:00:00 6.5 13 Oeste 21 Oeste 0 -- -- 57
2021-02-18 21:00:00 7 13 Oeste 21 Oeste 0 -- -- 56
2021-02-18 20:00:00 7.6 12 Oeste 20 Oeste 0 -- -- 54
2021-02-18 19:00:00 8.1 9 Oeste 30 Oeste 0 -- -- 50
2021-02-18 18:00:00 11.1 11 Oeste 34 Oeste 0 -- -- 40
2021-02-18 17:00:00 13.8 9 Oeste 35 Oeste 0 -- -- 34
2021-02-18 16:00:00 14.6 14 Oeste 45 Noroeste 0 -- -- 35
2021-02-18 15:00:00 14.8 14 Oeste 36 Oeste 0 -- -- 30
2021-02-18 14:00:00 14.3 13 Oeste 31 Oeste 0 -- -- 41
2021-02-18 13:00:00 13.7 13 Oeste 29 Sudoeste 0 -- -- 43
2021-02-18 12:00:00 12.5 15 Sudoeste 37 Sudoeste 0 -- -- 46
2021-02-18 11:00:00 12.9 20 Oeste 36 Oeste 0 -- -- 43
2021-02-18 10:00:00 11.2 14 Sudoeste 23 Sudoeste 0 -- -- 42
2021-02-18 09:00:00 9.2 11 Sudoeste 18 Sudoeste 0 -- -- 45
2021-02-18 08:00:00 5.2 15 Sudoeste 22 Sudoeste 0 -- -- 54
2021-02-18 07:00:00 5.5 13 Sudoeste 19 Sudoeste 0 -- -- 53
2021-02-18 06:00:00 5.2 14 Sudoeste 20 Sudoeste 0 -- -- 56
2021-02-18 05:00:00 4.5 17 Sudoeste 19 Sudoeste 0 -- -- 60
2021-02-18 04:00:00 4.8 13 Sudoeste 23 Sudoeste 0 -- -- 58
2021-02-18 03:00:00 5.2 15 Sudoeste 23 Sudoeste 0 -- -- 59
2021-02-18 02:00:00 5.3 14 Sudoeste 19 Sudoeste 0 -- -- 58
2021-02-18 01:00:00 6.1 15 Sudoeste 26 Sudoeste 0 -- -- 56
2021-02-18 00:00:00 6.7 15 Sudoeste 20 Sudoeste 0 -- -- 55
2021-02-17 23:00:00 6.8 14 Sudoeste 18 Sudoeste 0 -- -- 55
2021-02-17 22:00:00 7.4 12 Sudoeste 17 Sudoeste 0 -- -- 55
2021-02-17 21:00:00 7.8 12 Sudoeste 13 Sudoeste 0 -- -- 53
2021-02-17 20:00:00 8.6 4 Sudoeste 12 Oeste 0 -- -- 51
2021-02-17 19:00:00 10.2 7 Oeste 24 Oeste 0 -- -- 46
2021-02-17 18:00:00 12 15 Oeste 27 Noroeste 0 -- -- 42
2021-02-17 17:00:00 12.8 14 Oeste 29 Oeste 0 -- -- 42
2021-02-17 16:00:00 14.5 14 Oeste 38 Oeste 0 -- -- 38
2021-02-17 15:00:00 15.5 15 Oeste 32 Oeste 0 -- -- 41
2021-02-17 14:00:00 13.9 15 Oeste 30 Oeste 0 -- -- 51
2021-02-17 13:00:00 14 11 Oeste 29 Oeste 0 -- -- 51
2021-02-17 12:00:00 12.9 17 Oeste 32 Sudoeste 0 -- -- 56
2021-02-17 11:00:00 10.6 15 Oeste 26 Sudoeste 0 -- -- 69
2021-02-17 10:00:00 8.3 10 Sudoeste 20 Oeste 0 -- -- 74
2021-02-17 09:00:00 5.8 15 Sudoeste 21 Sudoeste 0 -- -- 77
2021-02-17 08:00:00 4.8 17 Sudoeste 21 Sudoeste 0 -- -- 80
2021-02-17 07:00:00 4.9 14 Sudoeste 21 Sudoeste 0 -- -- 80
2021-02-17 06:00:00 5.2 15 Sudoeste 24 Oeste 0 -- -- 80
2021-02-17 05:00:00 5.2 16 Sudoeste 21 Sudoeste 0 -- -- 81
2021-02-17 04:00:00 5.8 15 Oeste 21 Sudoeste 0 -- -- 78
2021-02-17 03:00:00 5.9 13 Oeste 22 Oeste 0 -- -- 78
2021-02-17 02:00:00 6.5 16 Oeste 24 Oeste 0 -- -- 75
2021-02-17 01:00:00 7.3 17 Oeste 28 Oeste 0 -- -- 70
2021-02-17 00:00:00 7.4 14 Oeste 33 Oeste 0 -- -- 69
2021-02-16 23:00:00 8.2 19 Oeste 33 Oeste 0 -- -- 63
2021-02-16 22:00:00 7.8 17 Oeste 27 Oeste 0 -- -- 64
2021-02-16 21:00:00 8.9 15 Oeste 28 Oeste 0 -- -- 58
2021-02-16 20:00:00 10.3 11 Oeste 22 Noroeste 0 -- -- 46
2021-02-16 19:00:00 11.4 5 Noroeste 26 Oeste 0 -- -- 42
2021-02-16 18:00:00 12.9 15 Oeste 45 Oeste 0 -- -- 39
2021-02-16 17:00:00 15.2 20 Noroeste 40 Oeste 0 -- -- 35
2021-02-16 16:00:00 16.4 19 Noroeste 38 Oeste 0 -- -- 34
2021-02-16 15:00:00 16.4 14 Oeste 39 Oeste 0 -- -- 39
2021-02-16 14:00:00 15.8 20 Oeste 34 Oeste 0 -- -- 37
2021-02-16 13:00:00 15.6 15 Oeste 27 Sudoeste 0 -- -- 35
2021-02-16 12:00:00 14.6 15 Sudoeste 32 Sudoeste 0 -- -- 33
2021-02-16 11:00:00 13.8 18 Sudoeste 31 Oeste 0 -- -- 28
2021-02-16 10:00:00 12.3 14 Sudoeste 25 Sudoeste 0 -- -- 32
2021-02-16 09:00:00 9.7 21 Sudoeste 28 Sudoeste 0 -- -- 39
2021-02-16 08:00:00 7.3 21 Sudoeste 29 Sudoeste 0 -- -- 44
2021-02-16 07:00:00 6.7 19 Sudoeste 28 Sudoeste 0 -- -- 50
2021-02-16 06:00:00 4.2 8 Sudoeste 19 Sudoeste 0 -- -- 66
2021-02-16 05:00:00 3 9 Sur 19 Sur 0 -- -- 77
2021-02-16 04:00:00 1.5 3 Sudeste 13 Sudeste 0 -- -- 93
2021-02-16 03:00:00 1.5 10 Sur 16 Sudeste 0 -- -- 96
2021-02-16 02:00:00 2.1 4 Sudeste 27 Sudoeste 0 -- -- 94
2021-02-16 01:00:00 2.8 11 Sur 22 Sudoeste 0 -- -- 93
2021-02-16 00:00:00 3.1 10 Sur 30 Sudoeste 0 -- -- 94
2021-02-15 23:00:00 3.5 21 Sudoeste 35 Sudoeste 0 -- -- 93
2021-02-15 22:00:00 4 12 Sur 26 Sudoeste 0 -- -- 92
2021-02-15 21:00:00 4.9 16 Sudoeste 24 Sudoeste 0 -- -- 89
2021-02-15 20:00:00 6.2 19 Sur 28 Sur 0 -- -- 86
2021-02-15 19:00:00 7 12 Sur 18 Sur 0 -- -- 84
2021-02-15 18:00:00 8.5 10 Sudeste 17 Sur 0 -- -- 82
2021-02-15 17:00:00 12.3 7 Sur 20 Sur 0 -- -- 55
2021-02-15 16:00:00 12.4 11 Sur 20 Sur 0 -- -- 57
2021-02-15 15:00:00 12.6 9 Sur 18 Sudeste 0 -- -- 58
2021-02-15 14:00:00 12.8 5 Sudoeste 14 Sudoeste 0 -- -- 56
2021-02-15 13:00:00 11.7 7 Oeste 17 Oeste 0 -- -- 59
2021-02-15 12:00:00 10.1 13 Sudoeste 22 Sudoeste 0 -- -- 67
2021-02-15 11:00:00 7.3 18 Sudoeste 33 Sudoeste 0 -- -- 81
2021-02-15 10:00:00 5.7 24 Sudoeste 33 Sudoeste 0 -- -- 86
2021-02-15 09:00:00 2.8 26 Sudoeste 38 Sudoeste 0 -- -- 94
2021-02-15 08:00:00 2.6 31 Sudoeste 40 Sudoeste 0 -- -- 95
2021-02-15 07:00:00 2.8 31 Sudoeste 42 Sudoeste 0 -- -- 96
2021-02-15 06:00:00 2.9 33 Sudoeste 41 Sudoeste 0 -- -- 96
2021-02-15 05:00:00 3.5 30 Sudoeste 46 Sudoeste 0 -- -- 91
2021-02-15 04:00:00 3.6 37 Sudoeste 49 Sudoeste 0 -- -- 94
2021-02-15 03:00:00 3.8 36 Sudoeste 50 Sudoeste 0 -- -- 94
2021-02-15 02:00:00 4 38 Sudoeste 50 Sudoeste 0 -- -- 94
2021-02-15 01:00:00 3.8 36 Sudoeste 44 Sudoeste 0 -- -- 94
2021-02-15 00:00:00 3.5 5 Sudoeste 24 Sudoeste 0 -- -- 95
2021-02-14 23:00:00 4.2 19 Sudoeste 38 Sudoeste 0 -- -- 95
2021-02-14 22:00:00 4.4 25 Sudoeste 36 Sudoeste 0 -- -- 95
2021-02-14 21:00:00 4.6 23 Sudoeste 35 Sudoeste 0 -- -- 94
2021-02-14 20:00:00 4.6 5 Sudeste 12 Sudeste 0 -- -- 97
2021-02-14 19:00:00 5.7 5 Sudeste 12 Este 0 -- -- 95
2021-02-14 18:00:00 6.7 8 Sudeste 18 Nordeste 0 -- -- 92
2021-02-14 17:00:00 8.7 11 Este 21 Este 0 -- -- 81
2021-02-14 16:00:00 9 14 Nordeste 22 Nordeste 0 -- -- 80
2021-02-14 15:00:00 11.5 6 Sudeste 16 Sudeste 0 -- -- 43
2021-02-14 14:00:00 11 9 Sudeste 15 Sudeste 0 -- -- 52
2021-02-14 13:00:00 10.6 8 Sur 17 Sudoeste 0 -- -- 59
2021-02-14 12:00:00 10 5 Oeste 12 Sudoeste 0 -- -- 66
2021-02-14 11:00:00 8.6 7 Sudoeste 11 Sudoeste 0 -- -- 74
2021-02-14 10:00:00 6.3 2 Norte 9 Sudoeste 0 -- -- 86
2021-02-14 09:00:00 4.1 13 Sudoeste 18 Sudoeste 0 -- -- 95
2021-02-14 08:00:00 1.4 9 Sudoeste 18 Sudoeste 0 -- -- 97
2021-02-14 07:00:00 2.6 2 Oeste 9 Norte 0 -- -- 96
2021-02-14 06:00:00 1.4 5 Noroeste 9 Oeste 0 -- -- 95
2021-02-14 05:00:00 1.6 4 Norte 10 Noroeste 0 -- -- 96
2021-02-14 04:00:00 2.5 5 Oeste 9 Oeste 0 -- -- 94
2021-02-14 03:00:00 2.4 3 Oeste 15 Oeste 0 -- -- 92
2021-02-14 02:00:00 2.6 10 Oeste 18 Norte 0 -- -- 91
2021-02-14 01:00:00 2.7 4 Noroeste 21 Noroeste 0 -- -- 88
2021-02-14 00:00:00 3.3 7 Norte 16 Noroeste 0 -- -- 86
2021-02-13 23:00:00 3.3 5 Sudoeste 12 Oeste 0 -- -- 85
2021-02-13 22:00:00 3 8 Oeste 14 Noroeste 0 -- -- 88
2021-02-13 21:00:00 4.1 8 Norte 12 Noroeste 0 -- -- 88
2021-02-13 20:00:00 4.9 4 Nordeste 23 Noroeste 0 -- -- 84
2021-02-13 19:00:00 5.3 14 Noroeste 30 Noroeste 0 -- -- 81
2021-02-13 18:00:00 6.2 18 Noroeste 32 Noroeste 0 -- -- 73
2021-02-13 17:00:00 7 23 Noroeste 45 Noroeste 0 -- -- 70
2021-02-13 16:00:00 6.8 27 Noroeste 45 Noroeste 0 -- -- 72
2021-02-13 15:00:00 6.6 29 Noroeste 49 Noroeste 0 -- -- 70
2021-02-13 14:00:00 7.5 22 Noroeste 33 Noroeste 0 -- -- 79
2021-02-13 13:00:00 6.9 18 Noroeste 31 Oeste 0 -- -- 81
2021-02-13 08:00:00 2.9 18 Noroeste 35 Noroeste 0 -- -- 98
2021-02-13 07:00:00 2.7 21 Noroeste 38 Oeste 0 -- -- 98
2021-02-13 06:00:00 2.3 14 Noroeste 32 Noroeste 0 -- -- 92
2021-02-13 05:00:00 2 17 Noroeste 41 Noroeste 0 -- -- 96
2021-02-13 04:00:00 2.8 25 Noroeste 35 Noroeste 0 -- -- 90
2021-02-13 03:00:00 2.2 18 Noroeste 30 Noroeste 0 -- -- 95
2021-02-13 02:00:00 2.3 19 Noroeste 27 Noroeste 0 -- -- 97
2021-02-13 01:00:00 2.6 13 Noroeste 23 Noroeste 0 -- -- 94
2021-02-13 00:00:00 3.1 14 Noroeste 27 Noroeste 0 -- -- 95
2021-02-12 23:00:00 3.3 19 Noroeste 27 Noroeste 0 -- -- 94
2021-02-12 22:00:00 3.9 15 Noroeste 28 Noroeste 0 -- -- 95
2021-02-12 21:00:00 5 19 Noroeste 32 Noroeste 0.2 -- -- 95
2021-02-12 20:00:00 5.7 20 Noroeste 36 Noroeste 0.4 -- -- 96
2021-02-12 19:00:00 5.7 19 Norte 40 Noroeste 1.2 -- -- 97
2021-02-12 18:00:00 6 22 Noroeste 39 Noroeste 0.8 -- -- 94
2021-02-12 17:00:00 5.6 22 Noroeste 45 Noroeste 0.6 -- -- 96
2021-02-12 16:00:00 5.5 31 Noroeste 59 Noroeste 0.8 -- -- 96
2021-02-12 15:00:00 6.4 34 Noroeste 59 Noroeste 0.2 -- -- 86
2021-02-12 14:00:00 6.3 26 Noroeste 50 Noroeste 0.2 -- -- 90
2021-02-12 13:00:00 7 24 Noroeste 46 Noroeste 0 -- -- 88
2021-02-12 12:00:00 6 30 Noroeste 49 Noroeste 0 -- -- 92
2021-02-12 11:00:00 5.8 26 Oeste 49 Oeste 1.8 -- -- 86
2021-02-12 10:00:00 6 26 Oeste 46 Noroeste 2.8 -- -- 94
2021-02-12 09:00:00 6.7 10 Noroeste 20 Noroeste 0.6 -- -- 94
2021-02-12 08:00:00 6.6 8 Oeste 20 Oeste 0 -- -- 93
2021-02-12 07:00:00 6.7 10 Oeste 31 Sudoeste 0 -- -- 93
2021-02-12 06:00:00 7.2 17 Oeste 28 Oeste 0 -- -- 91
2021-02-12 05:00:00 7.6 10 Oeste 27 Sudoeste 0 -- -- 89
2021-02-12 04:00:00 7.7 17 Oeste 35 Oeste 0 -- -- 88
2021-02-12 03:00:00 8.1 16 Sudoeste 39 Sudoeste 0 -- -- 88
2021-02-12 02:00:00 7.5 21 Sudoeste 31 Sudoeste 0 -- -- 90
2021-02-12 01:00:00 7.5 13 Oeste 34 Oeste 0 -- -- 93
2021-02-12 00:00:00 7.9 8 Oeste 28 Sudoeste 0 -- -- 91
2021-02-11 23:00:00 7.7 21 Oeste 39 Sudoeste 0 -- -- 91
2021-02-11 22:00:00 7.6 22 Sudoeste 36 Sudoeste 0 -- -- 90
2021-02-11 21:00:00 7.4 22 Oeste 37 Oeste 0 -- -- 88
2021-02-11 20:00:00 7.4 22 Sudoeste 36 Sudoeste 0 -- -- 86
2021-02-11 19:00:00 7.8 20 Oeste 32 Oeste 0 -- -- 85
2021-02-11 18:00:00 9.1 12 Oeste 35 Oeste 0 -- -- 81
2021-02-11 17:00:00 10.5 8 Noroeste 31 Oeste 0 -- -- 76
2021-02-11 16:00:00 11.3 16 Oeste 30 Oeste 0 -- -- 72
2021-02-11 15:00:00 11.4 17 Noroeste 31 Noroeste 0 -- -- 71
2021-02-11 14:00:00 10.4 21 Oeste 35 Oeste 0 -- -- 76
2021-02-11 13:00:00 10.7 13 Noroeste 47 Oeste 0 -- -- 75
2021-02-11 12:00:00 9.3 23 Oeste 42 Noroeste 0 -- -- 79
2021-02-11 11:00:00 8 22 Oeste 39 Oeste 0 -- -- 79
2021-02-11 10:00:00 6.4 28 Oeste 40 Oeste 0 -- -- 82
2021-02-11 09:00:00 5.6 29 Oeste 49 Oeste 0 -- -- 82
2021-02-11 08:00:00 4.5 26 Oeste 41 Oeste 0 -- -- 79
2021-02-11 07:00:00 4.3 24 Oeste 41 Oeste 0 -- -- 80
2021-02-11 06:00:00 3.1 27 Sudoeste 38 Oeste 0 -- -- 81
2021-02-11 05:00:00 3.3 26 Oeste 40 Oeste 0 -- -- 79
2021-02-11 04:00:00 3.1 24 Oeste 41 Oeste 0 -- -- 83
2021-02-11 03:00:00 2.7 24 Oeste 38 Oeste 0 -- -- 87
2021-02-11 02:00:00 3.3 23 Oeste 37 Oeste 0 -- -- 88
2021-02-11 01:00:00 3.6 19 Oeste 42 Oeste 0 -- -- 86
2021-02-11 00:00:00 3.8 22 Noroeste 41 Oeste 0 -- -- 78
2021-02-10 23:00:00 3.6 25 Noroeste 41 Oeste 0 -- -- 78
2021-02-10 22:00:00 4 28 Noroeste 41 Noroeste 0 -- -- 75
2021-02-10 21:00:00 3.4 21 Noroeste 34 Noroeste 0 -- -- 78
2021-02-10 20:00:00 3.4 22 Noroeste 34 Noroeste 0 -- -- 78
2021-02-10 19:00:00 3.6 20 Noroeste 37 Noroeste 0 -- -- 77
2021-02-10 18:00:00 4.7 23 Noroeste 42 Noroeste 0 -- -- 72
2021-02-10 17:00:00 5.8 30 Noroeste 44 Noroeste 0 -- -- 66
2021-02-10 16:00:00 6.4 22 Noroeste 47 Noroeste 0 -- -- 67
2021-02-10 15:00:00 5.5 28 Noroeste 48 Oeste 0 -- -- 71
2021-02-10 14:00:00 5.2 31 Noroeste 49 Noroeste 0 -- -- 76
2021-02-10 13:00:00 4.1 28 Noroeste 52 Noroeste 0 -- -- 87
2021-02-10 12:00:00 2.7 32 Noroeste 47 Noroeste 0 -- -- 93
2021-02-10 11:00:00 1.8 33 Noroeste 49 Noroeste 0 -- -- 92
2021-02-10 10:00:00 1.4 28 Noroeste 50 Noroeste 0.2 -- -- 95
2021-02-10 09:00:00 1.3 27 Noroeste 50 Oeste 0 -- -- 92
2021-02-10 08:00:00 1.3 31 Oeste 47 Noroeste 0.2 -- -- 91
2021-02-10 07:00:00 1.1 17 Oeste 32 Oeste 1.8 -- -- 97
2021-02-10 06:00:00 0.3 0 Calma 15 Oeste 2.8 -- -- 98
2021-02-10 05:00:00 1 11 Oeste 38 Oeste 4.4 -- -- 96
2021-02-10 04:00:00 2.7 12 Oeste 34 Sudoeste 0.6 -- -- 95
2021-02-10 03:00:00 2.6 11 Oeste 23 Oeste 0.2 -- -- 96
2021-02-10 02:00:00 2.3 6 Oeste 34 Oeste 0.2 -- -- 97
2021-02-10 01:00:00 1.7 22 Noroeste 42 Oeste 1.8 -- -- 95
2021-02-10 00:00:00 1.5 12 Oeste 33 Noroeste 3.6 -- -- 97
2021-02-09 23:00:00 1.5 25 Noroeste 47 Noroeste 1.2 -- -- 93
2021-02-09 22:00:00 2.9 8 Noroeste 26 Sudoeste 1.4 -- -- 96
2021-02-09 21:00:00 3 5 Oeste 30 Oeste 0.2 -- -- 95
2021-02-09 20:00:00 2.9 12 Oeste 27 Sudoeste 0 -- -- 93
2021-02-09 19:00:00 3.1 9 Noroeste 27 Oeste 0 -- -- 94
2021-02-09 18:00:00 3.3 21 Oeste 52 Oeste 3.2 -- -- 94
2021-02-09 17:00:00 5.6 13 Oeste 51 Oeste 0 -- -- 86
2021-02-09 16:00:00 7.2 18 Oeste 49 Sudoeste 0 -- -- 74
2021-02-09 15:00:00 8.2 14 Noroeste 54 Oeste 0 -- -- 69
2021-02-09 14:00:00 7.1 13 Sudoeste 45 Sudoeste 0 -- -- 74
2021-02-09 13:00:00 6.9 17 Oeste 50 Oeste 0 -- -- 75
2021-02-09 12:00:00 6.9 29 Sudoeste 58 Oeste 0 -- -- 77
2021-02-09 11:00:00 5.3 24 Oeste 47 Sudoeste 0 -- -- 83
2021-02-09 10:00:00 3.9 22 Oeste 51 Oeste 0 -- -- 85
2021-02-09 09:00:00 2.8 27 Oeste 49 Oeste 0 -- -- 88
2021-02-09 08:00:00 2.1 15 Oeste 36 Oeste 0 -- -- 90
2021-02-09 07:00:00 1.9 16 Oeste 56 Oeste 0 -- -- 90
2021-02-09 06:00:00 2.3 36 Oeste 62 Oeste 0.2 -- -- 89
2021-02-09 05:00:00 2.7 29 Oeste 51 Oeste 0 -- -- 94
2021-02-09 04:00:00 3 21 Oeste 50 Oeste 0 -- -- 92
2021-02-09 03:00:00 3.1 25 Oeste 44 Oeste 0 -- -- 93
2021-02-09 02:00:00 3 17 Oeste 40 Oeste 0 -- -- 94
2021-02-09 01:00:00 3 14 Oeste 35 Oeste 0 -- -- 94
2021-02-09 00:00:00 2.8 19 Oeste 49 Oeste 0.2 -- -- 96
2021-02-08 23:00:00 2.5 18 Noroeste 44 Oeste 1 -- -- 96
2021-02-08 22:00:00 2.3 25 Oeste 45 Oeste 0.6 -- -- 95
2021-02-08 21:00:00 2.7 28 Oeste 59 Oeste 0.4 -- -- 92
2021-02-08 20:00:00 3.5 19 Oeste 35 Oeste 0 -- -- 88
2021-02-08 19:00:00 3.7 17 Oeste 41 Oeste 0 -- -- 87
2021-02-08 18:00:00 3.8 24 Oeste 46 Oeste 0.4 -- -- 90
2021-02-08 17:00:00 4.5 27 Oeste 51 Oeste 0.2 -- -- 82
2021-02-08 16:00:00 4.9 21 Oeste 53 Oeste 0 -- -- 85
2021-02-08 15:00:00 5.5 24 Oeste 53 Oeste 0.2 -- -- 77
2021-02-08 14:00:00 5.3 18 Oeste 44 Noroeste 0 -- -- 81
2021-02-08 13:00:00 3.8 29 Oeste 52 Oeste 0 -- -- 86
2021-02-08 12:00:00 4 20 Oeste 43 Oeste 0 -- -- 91
2021-02-08 11:00:00 3 25 Oeste 41 Oeste 0.6 -- -- 93
2021-02-08 10:00:00 2.5 24 Sudoeste 40 Oeste 0.8 -- -- 94
2021-02-08 09:00:00 2.3 13 Oeste 43 Sudoeste 2.8 -- -- 97
2021-02-08 08:00:00 2.1 13 Oeste 29 Oeste 2 -- -- 94
2021-02-08 07:00:00 2.5 9 Oeste 31 Sudoeste 0.4 -- -- 93
2021-02-08 06:00:00 3 10 Sudoeste 37 Oeste 0 -- -- 88
2021-02-08 05:00:00 2.8 15 Oeste 38 Oeste 0 -- -- 89
2021-02-08 04:00:00 3 26 Oeste 58 Sudoeste 0 -- -- 88
2021-02-08 03:00:00 2.7 34 Sudoeste 56 Oeste 0 -- -- 93
2021-02-08 02:00:00 2.9 14 Sudoeste 39 Oeste 0 -- -- 92
2021-02-08 01:00:00 2.8 21 Oeste 41 Oeste 0 -- -- 91
2021-02-08 00:00:00 3 20 Oeste 39 Sudoeste 0 -- -- 90
2021-02-07 23:00:00 3 22 Oeste 46 Oeste 0 -- -- 88
2021-02-07 22:00:00 3 19 Oeste 46 Oeste 0 -- -- 90
2021-02-07 21:00:00 2.8 23 Oeste 44 Oeste 0 -- -- 86
2021-02-07 20:00:00 2.9 13 Noroeste 26 Oeste 0 -- -- 77
2021-02-07 19:00:00 3.2 9 Noroeste 35 Noroeste 0 -- -- 73
2021-02-07 18:00:00 3.5 22 Noroeste 33 Noroeste 0 -- -- 72
2021-02-07 17:00:00 4.3 22 Noroeste 36 Oeste 0 -- -- 64
2021-02-07 16:00:00 4.7 22 Noroeste 36 Noroeste 0 -- -- 57
2021-02-07 15:00:00 4.9 22 Noroeste 39 Noroeste 0 -- -- 60
2021-02-07 14:00:00 4 18 Noroeste 33 Noroeste 0 -- -- 66
2021-02-07 13:00:00 4.2 19 Noroeste 32 Noroeste 0 -- -- 72
2021-02-07 12:00:00 2.4 23 Noroeste 34 Noroeste 0 -- -- 76
2021-02-07 11:00:00 1.8 22 Noroeste 36 Noroeste 0 -- -- 80
2021-02-07 10:00:00 1 20 Noroeste 32 Noroeste 0 -- -- 80
2021-02-07 09:00:00 -0.5 15 Noroeste 27 Noroeste 0 -- -- 91
2021-02-07 08:00:00 -0.3 17 Noroeste 22 Noroeste 0 -- -- 95
2021-02-07 07:00:00 -0.5 9 Noroeste 18 Noroeste 0 -- -- 96
2021-02-07 06:00:00 -0.7 11 Noroeste 22 Norte 0 -- -- 96
2021-02-07 05:00:00 -0.2 14 Norte 25 Noroeste 0 -- -- 91
2021-02-07 04:00:00 0.2 13 Norte 25 Norte 0 -- -- 92
2021-02-07 03:00:00 0.1 18 Norte 35 Noroeste 0 -- -- 93
2021-02-07 02:00:00 0.3 28 Norte 45 Norte 0 -- -- 95
2021-02-07 01:00:00 0.7 21 Norte 37 Norte 0 -- -- 96
2021-02-07 00:00:00 1 21 Norte 34 Norte 0 -- -- 95
2021-02-06 23:00:00 1.3 21 Norte 33 Norte 0 -- -- 98
2021-02-06 22:00:00 1.5 19 Norte 33 Norte 0 -- -- 98
2021-02-06 21:00:00 2.2 14 Norte 25 Norte 0.2 -- -- 98
2021-02-06 20:00:00 1.4 10 Norte 21 Norte 2.2 -- -- 98
2021-02-06 19:00:00 2.2 15 Noroeste 35 Norte 0.2 -- -- 95
2021-02-06 18:00:00 4.6 16 Oeste 33 Norte 0 -- -- 88
2021-02-06 17:00:00 5.6 17 Sudoeste 28 Sudoeste 0.2 -- -- 90
2021-02-06 16:00:00 6.3 22 Sudoeste 30 Oeste 0 -- -- 87
2021-02-06 15:00:00 8.1 11 Oeste 25 Oeste 0 -- -- 71
2021-02-06 14:00:00 8.3 10 Oeste 33 Oeste 0 -- -- 73
2021-02-06 13:00:00 8 18 Sudoeste 41 Sudoeste 0 -- -- 73
2021-02-06 12:00:00 8.2 27 Sudoeste 39 Sudoeste 0 -- -- 74
2021-02-06 11:00:00 7 23 Sudoeste 33 Sudoeste 0.2 -- -- 79
2021-02-06 10:00:00 6.1 14 Oeste 22 Oeste 0 -- -- 88
2021-02-06 09:00:00 4.7 8 Oeste 21 Oeste 0 -- -- 93
2021-02-06 08:00:00 3.6 14 Oeste 21 Oeste 0 -- -- 93
2021-02-06 07:00:00 3.8 9 Sudoeste 22 Oeste 0 -- -- 93
2021-02-06 06:00:00 4.3 4 Sur 27 Sudeste 0.2 -- -- 91
2021-02-06 05:00:00 4.4 12 Sur 22 Sudeste 2.8 -- -- 94
2021-02-06 04:00:00 5.5 13 Sudoeste 20 Sudoeste 1 -- -- 90
2021-02-06 03:00:00 5.2 8 Oeste 21 Noroeste 0 -- -- 85
2021-02-06 02:00:00 6.8 9 Oeste 26 Sur 0 -- -- 76
2021-02-06 01:00:00 7.9 16 Sur 33 Sur 0 -- -- 68
2021-02-06 00:00:00 8.2 13 Sudoeste 23 Oeste 0 -- -- 62
2021-02-05 23:00:00 7.7 3 Noroeste 24 Sur 0 -- -- 61
2021-02-05 22:00:00 8.3 12 Sur 26 Sur 0 -- -- 59
2021-02-05 21:00:00 8.2 13 Sur 23 Sur 0 -- -- 60
2021-02-05 20:00:00 8.9 12 Sur 25 Sudeste 0 -- -- 60
2021-02-05 19:00:00 9.9 10 Sudeste 23 Sur 0 -- -- 61
2021-02-05 18:00:00 11.9 10 Sur 26 Sur 0 -- -- 54
2021-02-05 17:00:00 13 16 Sur 27 Sur 0 -- -- 50
2021-02-05 16:00:00 14.1 12 Sur 36 Sudoeste 0 -- -- 47
2021-02-05 15:00:00 15.1 13 Sur 33 Sudeste 0 -- -- 43
2021-02-05 14:00:00 14.7 17 Sur 39 Sur 0 -- -- 44
2021-02-05 13:00:00 14.9 23 Sur 44 Sur 0 -- -- 43
2021-02-05 12:00:00 14.3 22 Sur 39 Sur 0 -- -- 45
2021-02-05 11:00:00 13.1 18 Sur 33 Sur 0 -- -- 49
2021-02-05 10:00:00 11.5 13 Sur 23 Sur 0 -- -- 50
2021-02-05 09:00:00 10.2 15 Sur 30 Sur 0 -- -- 53
2021-02-05 08:00:00 9.9 14 Sudeste 21 Sudeste 0 -- -- 56
2021-02-05 07:00:00 9.7 14 Sudeste 23 Sudeste 0 -- -- 58
2021-02-05 06:00:00 7.7 10 Sudeste 18 Sudeste 0 -- -- 68
2021-02-05 05:00:00 8.9 12 Sudeste 18 Sudeste 0 -- -- 62
2021-02-05 04:00:00 8.4 12 Sudeste 17 Sudeste 0 -- -- 67
2021-02-05 03:00:00 7 5 Sudeste 11 Sudeste 0 -- -- 73
2021-02-05 02:00:00 7.1 2 Sudeste 8 Sudeste 0 -- -- 74
2021-02-05 01:00:00 6.3 9 Sudoeste 16 Sudoeste 0 -- -- 77
2021-02-05 00:00:00 7.3 11 Oeste 18 Sudoeste 0 -- -- 75
2021-02-04 23:00:00 8.4 11 Sudoeste 18 Sudoeste 0 -- -- 73
2021-02-04 22:00:00 8.5 6 Sudoeste 20 Sur 0 -- -- 71
2021-02-04 21:00:00 9.3 6 Sudoeste 21 Sudoeste 0 -- -- 69
2021-02-04 20:00:00 9.3 8 Sudoeste 22 Sur 0 -- -- 67
2021-02-04 19:00:00 9.8 9 Sudoeste 17 Sur 0 -- -- 63
2021-02-04 18:00:00 12.2 8 Sudoeste 31 Sudoeste 0 -- -- 52
2021-02-04 17:00:00 14.3 20 Sudoeste 34 Sudoeste 0 -- -- 44
2021-02-04 16:00:00 14.4 11 Sur 30 Sur 0 -- -- 50
2021-02-04 15:00:00 14.8 11 Sur 33 Sudeste 0 -- -- 44
2021-02-04 14:00:00 14.8 14 Sur 29 Sur 0 -- -- 47
2021-02-04 13:00:00 13.8 15 Sur 33 Sur 0 -- -- 46
2021-02-04 12:00:00 12.8 11 Sur 30 Sur 0 -- -- 50
2021-02-04 11:00:00 9.8 13 Sur 27 Sur 0 -- -- 61
2021-02-04 10:00:00 8.5 16 Sur 23 Sur 0 -- -- 72
2021-02-04 09:00:00 7.5 18 Sur 21 Sur 0 -- -- 81
2021-02-04 08:00:00 5.8 6 Sudoeste 15 Sur 0 -- -- 89
2021-02-04 07:00:00 6.7 11 Sur 17 Sudoeste 0 -- -- 86
2021-02-04 06:00:00 6 6 Sudoeste 15 Sudoeste 0 -- -- 89
2021-02-04 05:00:00 6.8 12 Sudoeste 17 Sudoeste 0 -- -- 85
2021-02-04 04:00:00 6.2 15 Sudoeste 22 Sur 0 -- -- 87
2021-02-04 03:00:00 7 18 Sur 22 Sur 0 -- -- 84
2021-02-04 02:00:00 6.8 17 Sur 20 Sur 0 -- -- 84
2021-02-04 01:00:00 6.6 13 Sur 17 Sur 0 -- -- 85
2021-02-04 00:00:00 6.8 11 Sur 18 Sudoeste 0 -- -- 83
2021-02-03 23:00:00 7.2 12 Sur 20 Sudoeste 0 -- -- 82
2021-02-03 22:00:00 7.5 13 Sudoeste 24 Sudoeste 0 -- -- 80
2021-02-03 21:00:00 7.1 11 Sudoeste 23 Sudoeste 0 -- -- 82
2021-02-03 20:00:00 8.5 11 Sudoeste 30 Oeste 0 -- -- 76
2021-02-03 19:00:00 8.5 14 Sudoeste 32 Sudoeste 0 -- -- 77
2021-02-03 18:00:00 9 9 Oeste 30 Oeste 0 -- -- 76
2021-02-03 17:00:00 9.7 14 Oeste 32 Oeste 0 -- -- 75
2021-02-03 16:00:00 10.1 16 Oeste 33 Oeste 0 -- -- 73
2021-02-03 15:00:00 11.8 21 Oeste 41 Oeste 0 -- -- 66
2021-02-03 14:00:00 11.3 24 Oeste 50 Oeste 0 -- -- 70
2021-02-03 13:00:00 10.8 25 Oeste 52 Oeste 0 -- -- 71
2021-02-03 12:00:00 9.1 33 Sudoeste 57 Oeste 0 -- -- 77
2021-02-03 11:00:00 7.8 31 Oeste 48 Oeste 0 -- -- 79
2021-02-03 10:00:00 6.9 28 Sudoeste 45 Sudoeste 0 -- -- 82
2021-02-03 09:00:00 4.1 30 Sudoeste 44 Sudoeste 0 -- -- 90
2021-02-03 08:00:00 3.6 30 Sudoeste 45 Sudoeste 0 -- -- 89
2021-02-03 07:00:00 3.4 30 Sudoeste 45 Sudoeste 0 -- -- 92
2021-02-03 06:00:00 4.1 30 Oeste 46 Sudoeste 0 -- -- 89
2021-02-03 05:00:00 4.1 34 Sudoeste 50 Sudoeste 0 -- -- 89
2021-02-03 04:00:00 4.1 31 Sudoeste 45 Sudoeste 0 -- -- 90
2021-02-03 03:00:00 4.5 29 Sudoeste 43 Sudoeste 0 -- -- 87
2021-02-03 02:00:00 5.1 26 Sudoeste 44 Sudoeste 0 -- -- 85
2021-02-03 01:00:00 5.4 32 Sudoeste 44 Sudoeste 0 -- -- 85
2021-02-03 00:00:00 4.7 31 Sudoeste 43 Sudoeste 0 -- -- 89
2021-02-02 23:00:00 5.1 23 Sudoeste 40 Oeste 0 -- -- 88
2021-02-02 22:00:00 6 25 Sudoeste 35 Sudoeste 0 -- -- 85
2021-02-02 21:00:00 6.1 18 Sudoeste 47 Sudoeste 0 -- -- 84
2021-02-02 20:00:00 6.4 34 Sudoeste 57 Sudoeste 0 -- -- 86
2021-02-02 19:00:00 7.3 40 Sudoeste 58 Oeste 0 -- -- 84
2021-02-02 18:00:00 8.7 36 Oeste 54 Oeste 0 -- -- 79
2021-02-02 17:00:00 9.6 40 Oeste 57 Sudoeste 0 -- -- 76
2021-02-02 16:00:00 10.9 35 Oeste 54 Sudoeste 0 -- -- 72
2021-02-02 15:00:00 11.5 20 Oeste 49 Sudoeste 0 -- -- 69
2021-02-02 14:00:00 10.3 34 Oeste 57 Oeste 0 -- -- 76
2021-02-02 13:00:00 9.3 30 Oeste 59 Sudoeste 0 -- -- 79
2021-02-02 12:00:00 8.5 32 Oeste 54 Sudoeste 0 -- -- 81
2021-02-02 11:00:00 7.3 8 Noroeste 41 Oeste 0 -- -- 88
2021-02-02 10:00:00 6.7 22 Oeste 40 Oeste 0 -- -- 92
2021-02-02 09:00:00 6 19 Noroeste 45 Oeste 0 -- -- 94
2021-02-02 08:00:00 5.5 30 Oeste 48 Oeste 0 -- -- 95
2021-02-02 07:00:00 5.4 29 Oeste 46 Oeste 0 -- -- 96
2021-02-02 06:00:00 5.7 22 Oeste 51 Oeste 0 -- -- 94
2021-02-02 05:00:00 5 33 Oeste 49 Oeste 0 -- -- 96
2021-02-02 04:00:00 5 22 Oeste 34 Oeste 0 -- -- 93
2021-02-02 03:00:00 4.5 21 Sudoeste 28 Sudoeste 0 -- -- 95
2021-02-02 02:00:00 5.4 26 Oeste 48 Oeste 0 -- -- 89
2021-02-02 01:00:00 5.8 26 Oeste 52 Oeste 0 -- -- 88
2021-02-02 00:00:00 6.2 30 Oeste 49 Oeste 0 -- -- 85
2021-02-01 23:00:00 6.5 28 Oeste 46 Noroeste 0 -- -- 83
2021-02-01 22:00:00 6.1 30 Noroeste 51 Noroeste 0 -- -- 86
2021-02-01 21:00:00 6.7 38 Noroeste 55 Noroeste 0 -- -- 83
2021-02-01 20:00:00 7 29 Noroeste 46 Noroeste 0 -- -- 81
2021-02-01 19:00:00 7.3 21 Noroeste 40 Noroeste 0 -- -- 82
2021-02-01 18:00:00 8.1 25 Noroeste 47 Noroeste 0 -- -- 79
2021-02-01 17:00:00 9.5 33 Noroeste 60 Noroeste 0 -- -- 75
2021-02-01 16:00:00 9.6 32 Noroeste 60 Noroeste 0 -- -- 76
2021-02-01 15:00:00 9.5 35 Noroeste 57 Noroeste 0 -- -- 76
2021-02-01 14:00:00 10 36 Noroeste 66 Noroeste 0 -- -- 73
2021-02-01 13:00:00 9.7 41 Noroeste 65 Noroeste 0 -- -- 72
2021-02-01 12:00:00 8.9 42 Noroeste 69 Noroeste 0 -- -- 72
2021-02-01 11:00:00 8.4 35 Noroeste 66 Noroeste 0 -- -- 72
2021-02-01 10:00:00 6.9 39 Noroeste 65 Noroeste 0 -- -- 76
2021-02-01 09:00:00 6 39 Noroeste 67 Noroeste 0 -- -- 78
2021-02-01 08:00:00 5.4 40 Noroeste 68 Noroeste 0 -- -- 80
2021-02-01 07:00:00 5.6 41 Noroeste 68 Oeste 0 -- -- 79
2021-02-01 06:00:00 5.7 37 Noroeste 69 Noroeste 0 -- -- 80
2021-02-01 05:00:00 6.1 35 Noroeste 60 Noroeste 0 -- -- 78
2021-02-01 04:00:00 6.7 39 Noroeste 66 Oeste 0 -- -- 74
2021-02-01 03:00:00 7.2 42 Noroeste 75 Oeste 0 -- -- 73
2021-02-01 02:00:00 7.6 32 Noroeste 63 Noroeste 0 -- -- 72
2021-02-01 01:00:00 7.3 25 Oeste 53 Oeste 0 -- -- 76
2021-02-01 00:00:00 7 32 Oeste 51 Noroeste 0 -- -- 82
2021-01-31 23:00:00 7.5 24 Oeste 44 Oeste 0 -- -- 88
2021-01-31 22:00:00 7.7 26 Oeste 46 Oeste 0 -- -- 89
2021-01-31 21:00:00 7.2 19 Oeste 55 Oeste 0 -- -- 92
2021-01-31 20:00:00 7.1 28 Oeste 54 Oeste 0 -- -- 92
2021-01-31 19:00:00 7.3 31 Oeste 61 Oeste 0 -- -- 94
2021-01-31 18:00:00 7.3 30 Oeste 57 Oeste 0 -- -- 92
2021-01-31 17:00:00 7.8 36 Oeste 61 Oeste 0 -- -- 89
2021-01-31 16:00:00 8.1 47 Oeste 71 Oeste 0 -- -- 84
2021-01-31 15:00:00 8.4 45 Oeste 67 Oeste 0 -- -- 81
2021-01-31 14:00:00 8.1 28 Oeste 48 Oeste 0 -- -- 81
2021-01-31 13:00:00 6.1 22 Noroeste 51 Noroeste 0 -- -- 87
2021-01-31 12:00:00 5.1 35 Noroeste 54 Noroeste 0 -- -- 86
2021-01-31 11:00:00 4.7 33 Noroeste 61 Noroeste 0 -- -- 85
2021-01-31 10:00:00 4 32 Noroeste 57 Noroeste 0 -- -- 81
2021-01-31 09:00:00 3.1 37 Noroeste 64 Noroeste 0 -- -- 86
2021-01-31 08:00:00 2.8 35 Noroeste 73 Oeste 0 -- -- 87
2021-01-31 07:00:00 2.8 36 Noroeste 68 Oeste 0 -- -- 87
2021-01-31 06:00:00 3 37 Noroeste 59 Noroeste 0 -- -- 86
2021-01-31 05:00:00 2.7 26 Noroeste 59 Noroeste 0 -- -- 89
2021-01-31 04:00:00 2.9 32 Noroeste 60 Noroeste 0 -- -- 86
2021-01-31 03:00:00 2.7 31 Noroeste 57 Noroeste 0.2 -- -- 87
2021-01-31 02:00:00 2.8 32 Noroeste 62 Oeste 0 -- -- 85
2021-01-31 01:00:00 2.9 32 Noroeste 61 Oeste 0 -- -- 83
2021-01-31 00:00:00 3.2 34 Noroeste 68 Noroeste 0 -- -- 83
2021-01-30 23:00:00 3.1 33 Oeste 63 Noroeste 0 -- -- 87
2021-01-30 22:00:00 3.2 20 Oeste 63 Noroeste 0 -- -- 90
2021-01-30 21:00:00 3.7 33 Noroeste 59 Oeste 0 -- -- 83
2021-01-30 20:00:00 3 29 Oeste 58 Oeste 0.8 -- -- 89
2021-01-30 19:00:00 3.6 24 Noroeste 64 Noroeste 0.4 -- -- 83
2021-01-30 18:00:00 4.7 29 Noroeste 61 Oeste 0 -- -- 77
2021-01-30 17:00:00 5.4 34 Noroeste 62 Noroeste 0 -- -- 72
2021-01-30 16:00:00 6 35 Noroeste 54 Oeste 0 -- -- 74
2021-01-30 15:00:00 4.8 26 Noroeste 52 Noroeste 1 -- -- 92
2021-01-30 14:00:00 6.8 25 Oeste 54 Oeste 0.4 -- -- 80
2021-01-30 13:00:00 5.4 31 Noroeste 47 Noroeste 0.2 -- -- 94
2021-01-30 12:00:00 6.6 31 Oeste 57 Oeste 0 -- -- 86
2021-01-30 11:00:00 5.5 18 Oeste 56 Oeste 1.4 -- -- 96
2021-01-30 10:00:00 4.7 26 Noroeste 47 Noroeste 1.2 -- -- 95
2021-01-30 09:00:00 5.3 16 Oeste 53 Oeste 3.4 -- -- 95
2021-01-30 08:00:00 6.3 22 Noroeste 45 Oeste 1.2 -- -- 96
2021-01-30 07:00:00 7.7 25 Noroeste 45 Noroeste 0 -- -- 86
2021-01-30 06:00:00 7.6 9 Noroeste 31 Oeste 0 -- -- 89
2021-01-30 05:00:00 7.7 19 Oeste 38 Oeste 0 -- -- 88
2021-01-30 04:00:00 6.7 12 Sudoeste 33 Sudoeste 0 -- -- 85
2021-01-30 03:00:00 6.3 22 Sudoeste 41 Sudoeste 0 -- -- 91
2021-01-30 02:00:00 7.1 22 Sudoeste 51 Oeste 0 -- -- 89
2021-01-30 01:00:00 7.1 31 Oeste 59 Oeste 0 -- -- 91
2021-01-30 00:00:00 7.1 27 Oeste 59 Oeste 0 -- -- 91
2021-01-29 23:00:00 7.1 18 Oeste 34 Oeste 0 -- -- 91
2021-01-29 22:00:00 7.4 20 Oeste 36 Oeste 0 -- -- 92
2021-01-29 21:00:00 8.4 18 Oeste 30 Oeste 0 -- -- 89
2021-01-29 20:00:00 8.9 14 Noroeste 27 Oeste 0 -- -- 86
2021-01-29 19:00:00 9.2 15 Noroeste 29 Oeste 0 -- -- 85
2021-01-29 18:00:00 10.3 16 Oeste 31 Noroeste 0 -- -- 82
2021-01-29 17:00:00 11.4 17 Oeste 31 Oeste 0 -- -- 78
2021-01-29 16:00:00 10.8 23 Noroeste 34 Norte 0 -- -- 84
2021-01-29 15:00:00 10.7 27 Noroeste 40 Noroeste 0 -- -- 84
2021-01-29 14:00:00 11.9 22 Noroeste 44 Noroeste 0 -- -- 78
2021-01-29 13:00:00 11.2 28 Noroeste 46 Noroeste 0 -- -- 80
2021-01-29 12:00:00 10.7 29 Oeste 49 Oeste 0 -- -- 81
2021-01-29 11:00:00 9.9 30 Oeste 56 Oeste 0 -- -- 82
2021-01-29 10:00:00 8.7 35 Oeste 59 Oeste 0 -- -- 86
2021-01-29 09:00:00 7.3 31 Oeste 51 Oeste 0 -- -- 89
2021-01-29 08:00:00 7.4 33 Oeste 55 Oeste 0 -- -- 89
2021-01-29 07:00:00 7.5 33 Oeste 60 Oeste 0 -- -- 89
2021-01-29 06:00:00 7.9 27 Oeste 47 Oeste 0 -- -- 86
2021-01-29 05:00:00 7.6 24 Oeste 44 Oeste 0 -- -- 88
2021-01-29 04:00:00 7.9 29 Oeste 45 Oeste 0 -- -- 84
2021-01-29 03:00:00 7.7 32 Oeste 46 Oeste 0 -- -- 85
2021-01-29 02:00:00 8.3 35 Sudoeste 45 Oeste 0 -- -- 84
2021-01-29 01:00:00 8.2 32 Oeste 47 Oeste 0 -- -- 87
2021-01-29 00:00:00 8.2 33 Oeste 50 Oeste 0 -- -- 87
2021-01-28 23:00:00 8.9 31 Oeste 44 Oeste 0 -- -- 84
2021-01-28 22:00:00 9.4 31 Sudoeste 45 Sudoeste 0 -- -- 82
2021-01-28 21:00:00 10.3 26 Oeste 41 Oeste 0 -- -- 79
2021-01-28 20:00:00 11.4 28 Oeste 42 Oeste 0 -- -- 76
2021-01-28 19:00:00 11.5 16 Oeste 27 Oeste 0 -- -- 76
2021-01-28 18:00:00 12.4 16 Oeste 39 Oeste 0 -- -- 75
2021-01-28 17:00:00 14.5 21 Oeste 38 Oeste 0 -- -- 67
2021-01-28 16:00:00 15 26 Oeste 50 Oeste 0 -- -- 64
2021-01-28 15:00:00 15.7 24 Oeste 46 Oeste 0 -- -- 64
2021-01-28 14:00:00 15 26 Oeste 46 Oeste 0 -- -- 68
2021-01-28 13:00:00 14 27 Oeste 48 Oeste 0 -- -- 71
2021-01-28 12:00:00 13.2 30 Oeste 48 Oeste 0 -- -- 71
2021-01-28 11:00:00 12.1 29 Oeste 45 Oeste 0 -- -- 75
2021-01-28 10:00:00 11.2 28 Oeste 50 Oeste 0 -- -- 77
2021-01-28 09:00:00 9.6 28 Oeste 44 Oeste 0 -- -- 83
2021-01-28 08:00:00 9.3 29 Oeste 46 Oeste 0 -- -- 84
2021-01-28 07:00:00 9.1 34 Oeste 50 Oeste 0 -- -- 85
2021-01-28 06:00:00 8.8 30 Oeste 45 Oeste 0 -- -- 89
2021-01-28 05:00:00 8 5 Noroeste 36 Noroeste 0 -- -- 92
2021-01-28 04:00:00 8.6 25 Oeste 47 Oeste 0 -- -- 91
2021-01-28 03:00:00 9.4 32 Oeste 55 Oeste 0 -- -- 87
2021-01-28 02:00:00 8.9 25 Oeste 52 Oeste 0 -- -- 87
2021-01-28 01:00:00 9.4 31 Oeste 55 Oeste 0 -- -- 84
2021-01-28 00:00:00 9.3 36 Oeste 53 Noroeste 0 -- -- 86